Time;durP1;ratioP1;P1;durP2;ratioP2;P2;SDS_P1;SDS_P2;PMS_P1;PMS_P2;Temp;Humidity;BMP_temperature;BMP_pressure;BME280_temperature;BME280_humidity;BME280_pressure;Samples;Min_cycle;Max_cycle;Signal;HPM_P1;HPM_P2
2022/07/01 00:02:34;;;;;;;14.25;10.20;;;;;;;24.09;63.25;99715.47;30852815;28;96721;-74
2022/07/01 00:17:35;;;;;;;12.02;10.55;;;;;;;23.74;63.61;99707.00;30869052;28;96670;-71
2022/07/01 00:32:35;;;;;;;;;;;;;;;23.24;64.11;99690.28;30867507;28;97321;-71
2022/07/01 00:47:40;;;;;;;15.85;11.02;;;;;;;22.61;64.65;99707.34;30867676;28;97344;-66
2022/07/01 01:02:41;;;;;;;13.77;10.23;;;;;;;22.10;66.11;99702.34;30864699;28;96790;-75
2022/07/01 01:17:41;;;;;;;14.40;11.75;;;;;;;21.82;67.28;99716.19;30863058;28;96760;-73
2022/07/01 01:32:42;;;;;;;13.20;11.23;;;;;;;21.67;68.35;99703.28;30861468;28;96974;-75
2022/07/01 01:47:42;;;;;;;14.67;13.03;;;;;;;21.46;69.24;99682.19;30860531;28;96852;-69
2022/07/01 02:02:42;;;;;;;15.27;12.37;;;;;;;21.26;70.12;99692.78;30859739;28;97587;-75
2022/07/01 02:17:43;;;;;;;16.57;12.43;;;;;;;21.07;70.93;99686.88;30858129;28;97168;-74
2022/07/01 02:32:43;;;;;;;18.07;13.67;;;;;;;20.83;71.66;99679.00;30855020;28;100109;-74
2022/07/01 02:47:46;;;;;;;21.23;12.30;;;;;;;20.71;72.32;99686.41;30855581;28;97321;-74
2022/07/01 03:02:47;;;;;;;18.17;12.67;;;;;;;20.75;72.87;99695.66;30853998;28;97329;-65
2022/07/01 03:17:50;;;;;;;18.90;11.57;;;;;;;21.04;72.76;99707.16;30851867;28;96683;-67
2022/07/01 03:32:50;;;;;;;11.97;10.33;;;;;;;21.20;72.15;99696.50;30850854;28;96692;-63
2022/07/01 03:47:51;;;;;;;9.93;8.87;;;;;;;21.36;71.43;99698.31;30868546;28;97308;-73
2022/07/01 04:02:52;;;;;;;13.67;8.07;;;;;;;21.60;70.48;99709.72;30869057;28;96966;-75
2022/07/01 04:17:52;;;;;;;15.10;9.37;;;;;;;21.77;69.71;99717.78;30866484;28;102374;-74
2022/07/01 04:32:53;;;;;;;13.27;9.48;;;;;;;22.02;68.74;99712.81;30863368;28;96795;-70
2022/07/01 04:47:53;;;;;;;13.97;9.80;;;;;;;22.03;68.20;99728.03;30862973;28;96720;-69
2022/07/01 05:02:53;;;;;;;13.47;9.57;;;;;;;22.04;67.89;99716.91;30856219;28;97503;-74
2022/07/01 05:33:13;;;;;;;16.67;10.27;;;;;;;23.74;66.40;99719.75;30858970;28;97067;-62
2022/07/01 05:48:14;;;;;;;;;;;;;;;24.11;63.72;99743.22;30858626;28;96763;-72
2022/07/01 06:03:14;;;;;;;13.33;10.10;;;;;;;24.49;63.33;99720.09;30858605;28;96816;-74
2022/07/01 06:18:15;;;;;;;16.85;10.98;;;;;;;24.99;62.54;99736.59;30856340;28;96616;-74
2022/07/01 06:33:15;;;;;;;17.17;11.40;;;;;;;25.11;61.18;99721.84;30853763;28;97291;-74
2022/07/01 06:48:16;;;;;;;14.13;10.32;;;;;;;26.01;59.97;99720.00;30852473;28;97007;-75
2022/07/01 07:03:16;;;;;;;14.30;10.83;;;;;;;26.72;58.18;99715.03;30850160;28;96679;-66
2022/07/01 07:18:17;;;;;;;13.73;9.80;;;;;;;27.06;56.26;99713.31;30859801;28;96928;-64
2022/07/01 07:33:17;;;;;;;12.32;9.02;;;;;;;28.07;55.30;99693.03;30866022;28;97161;-72
2022/07/01 07:48:18;;;;;;;15.90;10.68;;;;;;;28.35;54.47;99715.00;30864731;28;97188;-66
2022/07/01 08:03:18;;;;;;;10.13;9.10;;;;;;;29.93;52.35;99712.09;30867829;28;96722;-78
2022/07/01 08:18:19;;;;;;;12.38;9.32;;;;;;;30.87;50.20;99711.34;30868766;28;96685;-75
2022/07/01 08:33:19;;;;;;;17.38;9.27;;;;;;;32.21;46.74;99712.81;30862626;28;96718;-76
2022/07/01 08:48:20;;;;;;;10.60;9.40;;;;;;;33.87;42.37;99719.41;30863799;28;96638;-74
2022/07/01 09:03:22;;;;;;;14.43;8.83;;;;;;;33.77;41.17;99712.34;30861908;28;97091;-74
2022/07/01 09:18:22;;;;;;;13.83;8.53;;;;;;;33.60;41.10;99701.41;30861381;28;96676;-73
2022/07/01 09:33:28;;;;;;;11.32;7.47;;;;;;;35.20;38.77;99689.88;30853954;28;97107;-74
2022/07/01 09:48:35;;;;;;;10.30;7.80;;;;;;;34.59;37.36;99691.53;30850212;28;96776;-71
2022/07/01 10:03:39;;;;;;;8.40;7.60;;;;;;;34.85;38.48;99673.81;30849103;28;97330;-74
2022/07/01 10:18:39;;;;;;;10.73;7.63;;;;;;;35.71;36.66;99664.50;30844697;28;96788;-65
2022/07/01 10:33:42;;;;;;;11.45;7.28;;;;;;;36.47;34.48;99638.78;30843651;28;97198;-78
2022/07/01 10:48:48;;;;;;;7.83;6.70;;;;;;;37.23;32.05;99616.34;30750066;28;97699;-72
2022/07/01 11:03:49;;;;;;;10.27;6.73;;;;;;;37.97;30.36;99662.66;30729167;28;97325;-79
2022/07/01 11:18:50;;;;;;;10.98;6.70;;;;;;;37.39;30.07;99633.75;30732050;28;97662;-79
2022/07/01 11:33:50;;;;;;;7.43;5.90;;;;;;;36.40;29.84;99612.50;30734005;28;96736;-70
2022/07/01 11:48:52;;;;;;;10.63;7.07;;;;;;;36.17;30.92;99608.72;30754554;28;97102;-77
2022/07/01 12:03:55;;;;;;;11.33;6.27;;;;;;;36.32;30.35;99655.09;30735848;28;96625;-81
2022/07/01 12:18:59;;;;;;;14.03;5.00;;;;;;;34.23;33.87;99665.44;30745127;28;96861;-80
2022/07/01 12:34:00;;;;;;;11.90;6.47;;;;;;;33.65;34.87;99640.47;30740072;28;96689;-74
2022/07/01 12:49:00;;;;;;;15.55;7.75;;;;;;;33.17;36.28;99664.69;30741246;28;97149;-73
2022/07/01 13:04:01;;;;;;;8.18;6.10;;;;;;;32.03;37.96;99690.75;30738800;28;96750;-72
2022/07/01 13:19:01;;;;;;;9.15;4.97;;;;;;;29.76;40.87;99701.78;30753317;28;96827;-62
2022/07/01 13:34:02;;;;;;;10.13;6.70;;;;;;;28.48;45.83;99747.09;30845266;28;97382;-71
2022/07/01 13:49:02;;;;;;;11.77;7.85;;;;;;;26.94;50.67;99826.59;30844434;28;97510;-74
2022/07/01 14:04:03;;;;;;;13.93;8.10;;;;;;;25.48;58.80;99764.28;30822702;28;97200;-64
2022/07/01 14:19:03;;;;;;;10.55;7.45;;;;;;;25.63;59.59;99897.00;30850933;28;96782;-62
2022/07/01 14:34:04;;;;;;;14.52;12.45;;;;;;;24.66;61.82;99920.53;30840325;28;97957;-62
2022/07/01 14:49:04;;;;;;;15.52;8.55;;;;;;;24.31;61.63;99901.09;30840762;28;98404;-64
2022/07/01 15:04:05;;;;;;;7.55;3.45;;;;;;;24.42;56.71;99918.25;30844650;28;97165;-70
2022/07/01 15:19:05;;;;;;;8.15;4.57;;;;;;;23.87;55.43;99961.31;30837834;28;98103;-61
2022/07/01 15:34:05;;;;;;;;;;;;;;;22.79;59.21;99938.78;30846730;28;96852;-64
2022/07/01 15:49:07;;;;;;;14.73;12.75;;;;;;;22.40;63.50;99944.38;30862731;28;97235;-71
2022/07/01 16:04:07;;;;;;;19.23;12.93;;;;;;;22.85;64.21;99999.41;30864100;28;97337;-72
2022/07/01 16:19:07;;;;;;;11.67;9.60;;;;;;;22.99;64.04;100014.19;30863584;28;97105;-68
2022/07/01 16:34:08;;;;;;;12.85;9.23;;;;;;;22.59;64.63;100018.94;30953097;28;97864;-71
2022/07/01 16:49:20;;;;;;;10.73;6.23;;;;;;;22.48;64.35;100033.47;30978141;28;97321;-64
2022/07/01 17:04:25;;;;;;;6.43;5.00;;;;;;;22.38;64.07;100009.75;30978935;28;97276;-67
2022/07/01 17:19:25;;;;;;;5.70;3.53;;;;;;;22.03;63.36;100029.88;30951489;28;97106;-67
2022/07/01 17:34:28;;;;;;;8.87;4.03;;;;;;;21.58;63.91;100068.78;30856333;28;97379;-77
2022/07/01 17:49:32;;;;;;;5.97;4.50;;;;;;;21.07;64.49;100118.28;30845159;28;97558;-68
2022/07/01 18:04:33;;;;;;;5.97;3.63;;;;;;;20.56;65.06;100117.25;30858209;28;97073;-65
2022/07/01 18:20:05;;;;;;;6.95;3.80;;;;;;;20.03;65.34;100151.47;30839127;28;97163;-67
2022/07/01 18:35:12;;;;;;;8.70;3.40;;;;;;;19.69;65.81;100264.66;30836957;28;97901;-70
2022/07/01 18:50:13;;;;;;;3.70;2.77;;;;;;;19.47;66.11;100348.06;30840007;28;97415;-64
2022/07/01 19:05:14;;;;;;;3.65;2.88;;;;;;;19.32;66.12;100397.06;30838895;28;96816;-63
2022/07/01 19:20:21;;;;;;;7.20;3.90;;;;;;;19.15;66.38;100437.28;30859759;28;97384;-71
2022/07/01 19:35:23;;;;;;;4.40;3.23;;;;;;;19.06;66.21;100466.47;30859538;28;97164;-63
2022/07/01 19:50:23;;;;;;;5.17;3.53;;;;;;;18.91;66.16;100507.25;30858706;28;97595;-63
2022/07/01 20:05:24;;;;;;;5.68;3.25;;;;;;;18.72;66.33;100530.59;30856266;28;96827;-66
2022/07/01 20:20:24;;;;;;;3.90;2.90;;;;;;;18.40;66.42;100452.34;30854723;28;97438;-65
2022/07/01 20:35:25;;;;;;;4.03;2.65;;;;;;;18.01;67.41;100476.53;30852805;28;96790;-69
2022/07/01 20:50:27;;;;;;;4.83;2.87;;;;;;;17.93;68.15;100507.25;30852429;28;97252;-63
2022/07/01 21:05:28;;;;;;;5.17;2.63;;;;;;;17.90;68.08;100529.19;30846870;28;98158;-62
2022/07/01 21:20:29;;;;;;;3.47;2.17;;;;;;;18.01;67.60;100552.00;30826913;28;97283;-64
2022/07/01 21:35:30;;;;;;;3.35;2.60;;;;;;;18.03;67.64;100609.25;30732654;28;97262;-65
2022/07/01 21:50:30;;;;;;;3.67;2.10;;;;;;;17.88;67.62;100584.38;30732723;28;97114;-66
2022/07/01 22:20:50;;;;;;;6.13;2.60;;;;;;;17.39;68.53;100579.16;30742314;28;96716;-70
2022/07/01 22:35:51;;;;;;;5.57;3.00;;;;;;;17.19;69.11;100544.13;30844223;28;97134;-64
2022/07/01 22:50:56;;;;;;;5.20;3.33;;;;;;;17.06;69.59;100544.13;30850544;28;96680;-71
2022/07/01 23:05:58;;;;;;;4.87;3.40;;;;;;;17.07;69.70;100584.31;30850040;28;97791;-63
2022/07/01 23:21:01;;;;;;;4.03;2.90;;;;;;;17.01;69.81;100613.88;30850603;28;97486;-65
2022/07/01 23:36:01;;;;;;;5.00;3.10;;;;;;;16.81;70.08;100644.19;30847606;28;97046;-63
2022/07/01 23:51:02;;;;;;;6.70;3.28;;;;;;;16.80;70.30;100650.63;30848371;28;96688;-69
